createdAt,value
2022-08-09T00:00:12.341Z,18.7
2022-08-09T00:01:15.380Z,18.7
2022-08-09T00:02:12.156Z,18.7
2022-08-09T00:04:00.567Z,18.6
2022-08-09T00:04:34.306Z,18.6
2022-08-09T00:06:18.224Z,18.6
2022-08-09T00:07:12.112Z,18.6
2022-08-09T00:08:12.893Z,18.6
2022-08-09T00:09:12.104Z,18.5
2022-08-09T00:10:18.202Z,18.5
2022-08-09T00:11:24.400Z,18.6
2022-08-09T00:12:15.583Z,18.6
2022-08-09T00:13:17.213Z,18.5
2022-08-09T00:14:12.101Z,18.5
2022-08-09T00:15:13.900Z,18.4
2022-08-09T00:16:12.894Z,18.4
2022-08-09T00:18:05.138Z,18.5
2022-08-09T00:18:12.595Z,18.4
2022-08-09T00:19:12.106Z,18.4
2022-08-09T00:20:12.244Z,18.4
2022-08-09T00:21:12.105Z,18.4
2022-08-09T00:22:12.103Z,18.4
2022-08-09T00:24:12.106Z,18.3
2022-08-09T00:25:12.808Z,18.3
2022-08-09T00:26:12.119Z,18.3
2022-08-09T00:27:12.110Z,18.3
2022-08-09T00:28:12.108Z,18.3
2022-08-09T00:29:39.323Z,18.3
2022-08-09T00:30:24.543Z,18.2
2022-08-09T00:31:55.799Z,18.2
2022-08-09T00:32:12.729Z,18.2
2022-08-09T00:33:12.105Z,18.2
2022-08-09T00:34:12.105Z,18.2
2022-08-09T00:35:12.099Z,18.2
2022-08-09T00:36:12.114Z,18.2
2022-08-09T00:37:12.126Z,18.2
2022-08-09T00:38:12.108Z,18.2
2022-08-09T00:40:09.676Z,18.2
2022-08-09T00:40:16.943Z,18.2
2022-08-09T00:41:12.138Z,18.2
2022-08-09T00:44:14.339Z,18.1
2022-08-09T00:44:14.660Z,18.1
2022-08-09T00:44:26.436Z,18.2
2022-08-09T00:45:15.684Z,18.1
2022-08-09T00:46:28.429Z,18.1
2022-08-09T00:47:15.364Z,18
2022-08-09T00:48:15.372Z,18
2022-08-09T00:49:33.973Z,18
2022-08-09T00:50:14.652Z,18.1
2022-08-09T00:51:12.948Z,18.1
2022-08-09T00:52:17.312Z,18
2022-08-09T00:53:12.116Z,18
2022-08-09T00:54:12.123Z,18
2022-08-09T00:55:33.159Z,18
2022-08-09T00:56:12.133Z,17.9
2022-08-09T00:57:12.126Z,18
2022-08-09T00:58:14.539Z,18
2022-08-09T00:59:12.127Z,18
2022-08-09T01:00:21.296Z,18
2022-08-09T01:01:16.037Z,18
2022-08-09T01:02:12.142Z,17.9
2022-08-09T01:03:12.125Z,17.9
2022-08-09T01:04:12.125Z,17.9
2022-08-09T01:05:14.126Z,17.9
2022-08-09T01:06:18.114Z,17.9
2022-08-09T01:07:13.904Z,17.8
2022-08-09T01:08:12.136Z,17.8
2022-08-09T01:09:12.129Z,17.8
2022-08-09T01:10:12.134Z,17.8
2022-08-09T01:11:15.050Z,17.8
2022-08-09T01:12:12.790Z,17.8
2022-08-09T01:13:12.131Z,17.7
2022-08-09T01:14:12.134Z,17.8
2022-08-09T01:15:17.661Z,17.8
2022-08-09T01:16:12.833Z,17.8
2022-08-09T01:17:12.137Z,17.8
2022-08-09T01:18:14.216Z,17.8
2022-08-09T01:19:17.014Z,17.9
2022-08-09T01:20:12.134Z,17.8
2022-08-09T01:21:12.140Z,17.9
2022-08-09T01:22:12.417Z,17.8
2022-08-09T01:23:12.431Z,17.8
2022-08-09T01:24:12.173Z,17.8
2022-08-09T01:25:12.421Z,17.8
2022-08-09T01:26:12.143Z,17.8
2022-08-09T01:27:12.139Z,17.8
2022-08-09T01:28:12.144Z,17.8
2022-08-09T01:29:12.139Z,17.7
2022-08-09T01:30:28.688Z,17.7
2022-08-09T01:31:12.150Z,17.7
2022-08-09T01:32:29.647Z,17.7
2022-08-09T01:33:12.140Z,17.7
2022-08-09T01:34:12.146Z,17.7
2022-08-09T01:35:37.710Z,17.7
2022-08-09T01:36:12.145Z,17.7
2022-08-09T01:38:14.920Z,17.8
2022-08-09T01:39:12.223Z,17.7
2022-08-09T01:40:12.146Z,17.7
2022-08-09T01:41:12.142Z,17.7
2022-08-09T01:42:12.147Z,17.7
2022-08-09T01:43:12.150Z,17.6
2022-08-09T01:44:12.155Z,17.6
2022-08-09T01:45:12.148Z,17.6
2022-08-09T01:46:12.157Z,17.6
2022-08-09T01:47:12.147Z,17.6
2022-08-09T01:48:12.153Z,17.7
2022-08-09T01:50:12.154Z,17.6
2022-08-09T01:51:12.162Z,17.6
2022-08-09T01:52:12.153Z,17.6
2022-08-09T01:53:19.664Z,17.6
2022-08-09T01:54:12.165Z,17.5
2022-08-09T01:55:12.156Z,17.5
2022-08-09T01:56:12.153Z,17.5
2022-08-09T01:57:12.164Z,17.5
2022-08-09T01:58:12.153Z,17.5
2022-08-09T01:59:16.060Z,17.5
2022-08-09T02:00:35.157Z,17.5
2022-08-09T02:01:18.315Z,17.5
2022-08-09T02:02:12.212Z,17.4
2022-08-09T02:03:13.882Z,17.4
2022-08-09T02:04:12.159Z,17.4
2022-08-09T02:05:15.777Z,17.4
2022-08-09T02:06:12.162Z,17.3
2022-08-09T02:07:15.303Z,17.3
2022-08-09T02:08:39.538Z,17.3
2022-08-09T02:09:12.172Z,17.2
2022-08-09T02:10:12.167Z,17.3
2022-08-09T02:11:17.384Z,17.3
2022-08-09T02:12:13.400Z,17.2
2022-08-09T02:13:12.162Z,17.2
2022-08-09T02:14:15.745Z,17.2
2022-08-09T02:15:16.918Z,17.2
2022-08-09T02:16:12.372Z,17.3
2022-08-09T02:17:15.213Z,17.3
2022-08-09T02:18:12.171Z,17.3
2022-08-09T02:19:12.163Z,17.2
2022-08-09T02:20:12.165Z,17.2
2022-08-09T02:21:19.766Z,17.2
2022-08-09T02:22:12.162Z,17.2
2022-08-09T02:23:12.166Z,17.2
2022-08-09T02:24:12.167Z,17.2
2022-08-09T02:25:15.058Z,17.1
2022-08-09T02:26:25.262Z,17.1
2022-08-09T02:27:12.175Z,17.1
2022-08-09T02:28:12.181Z,17.1
2022-08-09T02:29:12.173Z,17
2022-08-09T02:30:12.167Z,17
2022-08-09T02:31:12.171Z,17.1
2022-08-09T02:32:12.174Z,17
2022-08-09T02:33:14.581Z,17
2022-08-09T02:34:13.800Z,17
2022-08-09T02:35:17.893Z,17
2022-08-09T02:36:12.184Z,17
2022-08-09T02:37:12.369Z,17
2022-08-09T02:38:12.188Z,17
2022-08-09T02:39:14.551Z,17
2022-08-09T02:40:12.198Z,16.9
2022-08-09T02:41:12.176Z,16.9
2022-08-09T02:42:12.196Z,16.9
2022-08-09T02:43:12.177Z,16.8
2022-08-09T02:44:22.044Z,16.8
2022-08-09T02:45:12.174Z,16.7
2022-08-09T02:46:12.181Z,16.7
2022-08-09T02:47:12.211Z,16.6
2022-08-09T02:48:30.442Z,16.6
2022-08-09T02:49:12.210Z,16.6
2022-08-09T02:50:12.176Z,16.6
2022-08-09T02:51:12.180Z,16.6
2022-08-09T02:52:12.176Z,16.6
2022-08-09T02:53:25.812Z,16.6
2022-08-09T02:54:12.332Z,16.7
2022-08-09T02:55:20.938Z,16.6
2022-08-09T02:56:12.195Z,16.6
2022-08-09T02:57:14.017Z,16.6
2022-08-09T02:59:16.045Z,16.6
2022-08-09T03:00:25.326Z,16.6
2022-08-09T03:01:15.159Z,16.7
2022-08-09T03:02:16.765Z,16.7
2022-08-09T03:04:16.454Z,16.6
2022-08-09T03:05:16.677Z,16.6
2022-08-09T03:06:12.195Z,16.6
2022-08-09T03:07:14.489Z,16.6
2022-08-09T03:08:12.191Z,16.6
2022-08-09T03:09:12.201Z,16.6
2022-08-09T03:10:12.258Z,16.6
2022-08-09T03:11:12.193Z,16.6
2022-08-09T03:13:12.191Z,16.5
2022-08-09T03:14:12.189Z,16.5
2022-08-09T03:15:12.193Z,16.5
2022-08-09T03:16:12.194Z,16.5
2022-08-09T03:17:20.481Z,16.6
2022-08-09T03:18:12.189Z,16.5
2022-08-09T03:19:14.143Z,16.5
2022-08-09T03:20:12.197Z,16.5
2022-08-09T03:21:12.203Z,16.5
2022-08-09T03:22:25.479Z,16.5
2022-08-09T03:23:15.018Z,16.5
2022-08-09T03:24:12.225Z,16.5
2022-08-09T03:25:25.870Z,16.5
2022-08-09T03:26:12.200Z,16.5
2022-08-09T03:27:12.192Z,16.5
2022-08-09T03:28:12.204Z,16.5
2022-08-09T03:29:22.713Z,16.4
2022-08-09T03:30:12.196Z,16.4
2022-08-09T03:31:21.292Z,16.4
2022-08-09T03:32:12.215Z,16.4
2022-08-09T03:33:17.548Z,16.4
2022-08-09T03:34:12.209Z,16.4
2022-08-09T03:35:15.006Z,16.4
2022-08-09T03:36:16.396Z,16.3
2022-08-09T03:37:55.835Z,16.3
2022-08-09T03:38:28.530Z,16.3
2022-08-09T03:39:12.220Z,16.3
2022-08-09T03:40:13.248Z,16.3
2022-08-09T03:41:15.576Z,16.3
2022-08-09T03:42:13.042Z,16.2
2022-08-09T03:43:12.205Z,16.2
2022-08-09T03:44:12.247Z,16.2
2022-08-09T03:45:12.216Z,16.2
2022-08-09T03:46:27.044Z,16.3
2022-08-09T03:47:12.207Z,16.3
2022-08-09T03:48:12.239Z,16.2
2022-08-09T03:49:12.228Z,16.3
2022-08-09T03:50:12.222Z,16.2
2022-08-09T03:51:55.814Z,16.2
2022-08-09T03:52:12.222Z,16.2
2022-08-09T03:53:12.211Z,16.2
2022-08-09T03:54:12.208Z,16.2
2022-08-09T03:55:14.414Z,16.2
2022-08-09T03:56:12.221Z,16.2
2022-08-09T03:58:16.307Z,16.2
2022-08-09T03:59:17.014Z,16.1
2022-08-09T04:01:12.270Z,16.1
2022-08-09T04:02:12.224Z,16.1
2022-08-09T04:04:14.747Z,16.1
2022-08-09T04:05:14.001Z,16.1
2022-08-09T04:06:12.283Z,16.1
2022-08-09T04:07:12.221Z,16
2022-08-09T04:08:12.220Z,16.1
2022-08-09T04:09:41.645Z,16
2022-08-09T04:10:12.222Z,16
2022-08-09T04:11:12.224Z,16
2022-08-09T04:12:12.265Z,16.1
2022-08-09T04:13:12.296Z,16
2022-08-09T04:14:53.505Z,16
2022-08-09T04:15:29.585Z,16
2022-08-09T04:16:20.659Z,16
2022-08-09T04:17:12.226Z,16
2022-08-09T04:19:15.794Z,16
2022-08-09T04:20:12.242Z,16
2022-08-09T04:21:12.242Z,16
2022-08-09T04:22:13.123Z,16.1
2022-08-09T04:23:16.596Z,16.1
2022-08-09T04:24:12.233Z,16
2022-08-09T04:25:12.227Z,16
2022-08-09T04:26:12.234Z,16
2022-08-09T04:27:12.293Z,16
2022-08-09T04:28:12.469Z,16
2022-08-09T04:29:15.690Z,16
2022-08-09T04:30:12.236Z,16
2022-08-09T04:31:13.055Z,16
2022-08-09T04:32:13.149Z,16
2022-08-09T04:33:12.308Z,16
2022-08-09T04:34:12.240Z,16
2022-08-09T04:35:12.238Z,16.1
2022-08-09T04:37:12.233Z,16
2022-08-09T04:38:12.247Z,15.9
2022-08-09T04:39:12.306Z,16
2022-08-09T04:40:12.240Z,16
2022-08-09T04:41:12.237Z,16
2022-08-09T04:43:12.244Z,16
2022-08-09T04:44:12.239Z,15.9
2022-08-09T04:45:12.237Z,15.9
2022-08-09T04:46:19.223Z,16
2022-08-09T04:47:12.237Z,16
2022-08-09T04:48:12.238Z,16
2022-08-09T04:49:12.244Z,16
2022-08-09T04:50:12.239Z,16
2022-08-09T04:51:12.240Z,16.1
2022-08-09T04:52:12.239Z,16.1
2022-08-09T04:53:13.607Z,16
2022-08-09T04:54:12.249Z,16.1
2022-08-09T04:55:12.350Z,16.1
2022-08-09T04:56:12.239Z,16.1
2022-08-09T04:57:12.412Z,16.2
2022-08-09T04:58:12.238Z,16.2
2022-08-09T04:59:13.074Z,16.1
2022-08-09T05:01:15.997Z,16.1
2022-08-09T05:02:12.334Z,16.1
2022-08-09T05:03:30.665Z,16.1
2022-08-09T05:04:12.331Z,16.1
2022-08-09T05:05:12.247Z,16.1
2022-08-09T05:06:22.120Z,16.2
2022-08-09T05:07:18.997Z,16.2
2022-08-09T05:08:14.761Z,16.2
2022-08-09T05:09:12.411Z,16.2
2022-08-09T05:10:12.266Z,16.2
2022-08-09T05:11:12.255Z,16.3
2022-08-09T05:12:12.448Z,16.3
2022-08-09T05:13:12.244Z,16.3
2022-08-09T05:14:12.255Z,16.3
2022-08-09T05:15:38.645Z,16.4
2022-08-09T05:16:12.316Z,16.4
2022-08-09T05:18:36.908Z,16.3
2022-08-09T05:18:39.450Z,16.4
2022-08-09T05:19:12.271Z,16.4
2022-08-09T05:20:12.251Z,16.4
2022-08-09T05:21:22.939Z,16.5
2022-08-09T05:22:33.227Z,16.5
2022-08-09T05:23:55.733Z,16.5
2022-08-09T05:24:12.272Z,16.5
2022-08-09T05:26:22.216Z,16.6
2022-08-09T05:27:13.467Z,16.6
2022-08-09T05:28:12.275Z,16.7
2022-08-09T05:29:17.455Z,16.7
2022-08-09T05:30:12.270Z,16.7
2022-08-09T05:31:12.261Z,16.7
2022-08-09T05:32:12.267Z,16.7
2022-08-09T05:33:12.266Z,16.8
2022-08-09T05:34:17.022Z,16.8
2022-08-09T05:35:12.257Z,16.8
2022-08-09T05:36:12.263Z,16.9
2022-08-09T05:37:12.267Z,16.9
2022-08-09T05:38:12.278Z,16.9
2022-08-09T05:39:12.338Z,17
2022-08-09T05:40:12.371Z,17
2022-08-09T05:41:12.856Z,17
2022-08-09T05:42:17.742Z,17
2022-08-09T05:43:12.262Z,17
2022-08-09T05:44:12.265Z,17
2022-08-09T05:45:14.295Z,17.1
2022-08-09T05:46:12.268Z,17.1
2022-08-09T05:47:12.270Z,17.2
2022-08-09T05:48:12.273Z,17.2
2022-08-09T05:49:33.838Z,17.2
2022-08-09T05:50:30.448Z,17.2
2022-08-09T05:51:29.844Z,17.2
2022-08-09T05:52:12.271Z,17.3
2022-08-09T05:53:31.723Z,17.3
2022-08-09T05:54:12.278Z,17.4
2022-08-09T05:55:20.890Z,17.4
2022-08-09T05:56:12.300Z,17.4
2022-08-09T05:57:12.776Z,17.4
2022-08-09T05:58:12.336Z,17.5
2022-08-09T05:59:12.271Z,17.5
2022-08-09T06:00:34.015Z,17.5
2022-08-09T06:01:16.037Z,17.5
2022-08-09T06:02:12.278Z,17.6
2022-08-09T06:03:12.363Z,17.6
2022-08-09T06:04:12.498Z,17.6
2022-08-09T06:05:12.306Z,17.7
2022-08-09T06:06:12.285Z,17.8
2022-08-09T06:07:21.725Z,17.9
2022-08-09T06:08:12.277Z,17.8
2022-08-09T06:09:40.417Z,17.9
2022-08-09T06:10:15.952Z,17.9
2022-08-09T06:11:17.481Z,17.9
2022-08-09T06:12:12.286Z,18
2022-08-09T06:13:18.346Z,18
2022-08-09T06:14:12.348Z,18
2022-08-09T06:15:12.287Z,18
2022-08-09T06:16:12.283Z,17.9
2022-08-09T06:17:12.318Z,18
2022-08-09T06:18:12.282Z,18
2022-08-09T06:19:12.284Z,18.1
2022-08-09T06:20:12.291Z,18.1
2022-08-09T06:21:12.297Z,18.2
2022-08-09T06:22:15.014Z,18.2
2022-08-09T06:23:15.679Z,18.2
2022-08-09T06:24:12.294Z,18.3
2022-08-09T06:25:16.179Z,18.4
2022-08-09T06:26:12.287Z,18.5
2022-08-09T06:27:12.303Z,18.5
2022-08-09T06:28:12.324Z,18.5
2022-08-09T06:29:15.026Z,18.5
2022-08-09T06:30:14.074Z,18.6
2022-08-09T06:31:12.297Z,18.6
2022-08-09T06:32:53.162Z,18.6
2022-08-09T06:33:30.090Z,18.6
2022-08-09T06:34:12.290Z,18.6
2022-08-09T06:36:13.721Z,18.6
2022-08-09T06:37:12.293Z,18.6
2022-08-09T06:38:12.290Z,18.7
2022-08-09T06:39:12.518Z,18.7
2022-08-09T06:40:21.926Z,18.7
2022-08-09T06:41:18.930Z,18.7
2022-08-09T06:42:12.308Z,18.7
2022-08-09T06:43:12.291Z,18.6
2022-08-09T06:44:12.294Z,18.8
2022-08-09T06:46:05.083Z,18.8
2022-08-09T06:46:13.133Z,18.9
2022-08-09T06:47:12.379Z,18.9
2022-08-09T06:48:12.306Z,19
2022-08-09T06:49:12.299Z,19
2022-08-09T06:50:14.886Z,19
2022-08-09T06:51:12.359Z,19.1
2022-08-09T06:52:15.583Z,19.2
2022-08-09T06:53:12.303Z,19.2
2022-08-09T06:54:14.792Z,19.3
2022-08-09T06:55:12.607Z,19.4
2022-08-09T06:56:12.302Z,19.4
2022-08-09T06:57:12.297Z,19.4
2022-08-09T06:58:28.600Z,19.5
2022-08-09T07:00:51.493Z,19.5
2022-08-09T07:01:12.370Z,19.7
2022-08-09T07:02:12.357Z,19.8
2022-08-09T07:03:12.311Z,19.9
2022-08-09T07:04:12.308Z,19.9
2022-08-09T07:05:12.310Z,19.9
2022-08-09T07:06:12.307Z,19.9
2022-08-09T07:07:12.325Z,20
2022-08-09T07:08:12.328Z,20
2022-08-09T07:09:55.069Z,20
2022-08-09T07:10:24.080Z,20.1
2022-08-09T07:11:17.470Z,20
2022-08-09T07:12:17.445Z,20
2022-08-09T07:13:27.227Z,20.1
2022-08-09T07:14:12.315Z,20.2
2022-08-09T07:15:54.014Z,20.4
2022-08-09T07:16:43.461Z,20.3
2022-08-09T07:17:12.313Z,20.2
2022-08-09T07:18:14.353Z,20.3
2022-08-09T07:19:15.388Z,20.3
2022-08-09T07:20:12.315Z,20.3
2022-08-09T07:21:12.317Z,20.4
2022-08-09T07:22:12.305Z,20.4
2022-08-09T07:23:18.951Z,20.5
2022-08-09T07:24:12.320Z,20.5
2022-08-09T07:25:12.313Z,20.6
2022-08-09T07:26:12.973Z,20.7
2022-08-09T07:27:28.240Z,20.7
2022-08-09T07:28:12.318Z,20.8
2022-08-09T07:29:13.483Z,20.8
2022-08-09T07:30:12.342Z,20.9
2022-08-09T07:31:12.314Z,20.9
2022-08-09T07:32:12.315Z,21
2022-08-09T07:33:16.379Z,21
2022-08-09T07:34:20.423Z,20.9
2022-08-09T07:35:12.330Z,21
2022-08-09T07:36:12.321Z,21.1
2022-08-09T07:37:15.919Z,21.2
2022-08-09T07:38:12.328Z,21.1
2022-08-09T07:39:12.365Z,21.2
2022-08-09T07:40:12.866Z,21.2
2022-08-09T07:41:12.823Z,21.2
2022-08-09T07:42:12.325Z,21.2
2022-08-09T07:43:16.622Z,21.3
2022-08-09T07:44:12.333Z,21.4
2022-08-09T07:45:22.644Z,21.4
2022-08-09T07:46:12.328Z,21.4
2022-08-09T07:47:12.327Z,21.5
2022-08-09T07:48:25.604Z,21.6
2022-08-09T07:49:15.397Z,21.7
2022-08-09T07:50:12.345Z,21.6
2022-08-09T07:52:05.941Z,21.7
2022-08-09T07:52:17.812Z,21.7
2022-08-09T07:53:12.331Z,21.8
2022-08-09T07:54:12.333Z,21.8
2022-08-09T07:55:12.340Z,21.9
2022-08-09T07:56:26.765Z,21.9
2022-08-09T07:57:12.337Z,21.9
2022-08-09T07:58:13.233Z,22
2022-08-09T07:59:21.204Z,22.1
2022-08-09T08:00:12.342Z,22.1
2022-08-09T08:01:13.682Z,22.2
2022-08-09T08:02:16.642Z,22.2
2022-08-09T08:04:12.341Z,22.2
2022-08-09T08:05:18.576Z,22.2
2022-08-09T08:06:14.338Z,22.3
2022-08-09T08:08:06.129Z,22.3
2022-08-09T08:09:02.585Z,22.3
2022-08-09T08:09:34.299Z,22.4
2022-08-09T08:10:12.394Z,22.4
2022-08-09T08:12:10.819Z,22.5
2022-08-09T08:13:12.340Z,22.7
2022-08-09T08:14:12.356Z,22.7
2022-08-09T08:15:13.899Z,22.5
2022-08-09T08:16:31.512Z,22.6
2022-08-09T08:17:24.838Z,22.6
2022-08-09T08:18:14.484Z,22.7
2022-08-09T08:19:12.345Z,22.8
2022-08-09T08:20:13.211Z,22.9
2022-08-09T08:21:12.347Z,23.1
2022-08-09T08:22:12.349Z,23.1
2022-08-09T08:23:17.121Z,23.1
2022-08-09T08:24:16.581Z,23.2
2022-08-09T08:25:13.538Z,23.2
2022-08-09T08:26:12.350Z,23.2
2022-08-09T08:27:16.899Z,23.1
2022-08-09T08:28:14.256Z,23.2
2022-08-09T08:29:12.349Z,23.2
2022-08-09T08:30:12.432Z,23.2
2022-08-09T08:31:15.007Z,23.2
2022-08-09T08:32:12.630Z,23.3
2022-08-09T08:33:23.821Z,23.3
2022-08-09T08:34:12.357Z,23.4
2022-08-09T08:35:12.357Z,23.4
2022-08-09T08:36:12.364Z,23.5
2022-08-09T08:37:15.792Z,23.6
2022-08-09T08:38:12.357Z,23.6
2022-08-09T08:39:12.390Z,23.6
2022-08-09T08:40:12.358Z,23.5
2022-08-09T08:41:12.355Z,23.6
2022-08-09T08:43:13.736Z,23.8
2022-08-09T08:44:13.737Z,23.9
2022-08-09T08:45:13.750Z,23.9
2022-08-09T08:46:33.593Z,24.1
2022-08-09T08:47:13.451Z,24.2
2022-08-09T08:48:16.829Z,24.2
2022-08-09T08:49:12.827Z,24.3
2022-08-09T08:50:12.361Z,24.3
2022-08-09T08:51:12.412Z,24.3
2022-08-09T08:52:24.414Z,24.4
2022-08-09T08:53:16.062Z,24.5
2022-08-09T08:54:20.482Z,24.4
2022-08-09T08:55:15.041Z,24.5
2022-08-09T08:56:16.829Z,24.5
2022-08-09T08:57:12.376Z,24.4
2022-08-09T08:58:12.372Z,24.4
2022-08-09T08:59:19.880Z,24.5
2022-08-09T09:00:20.515Z,24.5
2022-08-09T09:01:21.062Z,24.5
2022-08-09T09:02:12.820Z,24.5
2022-08-09T09:03:20.732Z,24.6
2022-08-09T09:04:12.374Z,24.6
2022-08-09T09:05:12.387Z,24.8
2022-08-09T09:06:12.373Z,24.9
2022-08-09T09:07:12.385Z,24.9
2022-08-09T09:08:30.667Z,24.9
2022-08-09T09:09:21.219Z,24.9
2022-08-09T09:10:12.380Z,24.9
2022-08-09T09:11:13.607Z,24.9
2022-08-09T09:12:16.757Z,25
2022-08-09T09:13:12.382Z,25
2022-08-09T09:14:15.729Z,25
2022-08-09T09:15:12.383Z,25.1
2022-08-09T09:16:12.387Z,25.2
2022-08-09T09:17:13.057Z,25.3
2022-08-09T09:18:12.393Z,25.3
2022-08-09T09:20:12.551Z,25.3
2022-08-09T09:21:12.384Z,25.4
2022-08-09T09:22:12.637Z,25.5
2022-08-09T09:23:14.125Z,25.4
2022-08-09T09:24:21.512Z,25.6
2022-08-09T09:26:12.790Z,25.6
2022-08-09T09:27:22.065Z,25.7
2022-08-09T09:28:12.393Z,25.8
2022-08-09T09:29:17.185Z,25.7
2022-08-09T09:30:28.707Z,25.8
2022-08-09T09:32:15.500Z,25.9
2022-08-09T09:33:16.571Z,26.1
2022-08-09T09:34:14.657Z,26.2
2022-08-09T09:35:13.019Z,26.3
2022-08-09T09:36:20.487Z,26.4
2022-08-09T09:37:12.952Z,26.5
2022-08-09T09:38:27.690Z,26.5
2022-08-09T09:39:12.422Z,26.6
2022-08-09T09:40:13.148Z,26.6
2022-08-09T09:41:12.397Z,26.7
2022-08-09T09:42:12.398Z,26.5
2022-08-09T09:43:13.564Z,26.5
2022-08-09T09:44:15.479Z,26.6
2022-08-09T09:45:14.526Z,26.7
2022-08-09T09:46:43.358Z,26.8
2022-08-09T09:47:12.402Z,26.9
2022-08-09T09:48:12.406Z,27
2022-08-09T09:49:12.413Z,27
2022-08-09T09:50:14.693Z,27.1
2022-08-09T09:51:18.839Z,27.1
2022-08-09T09:52:16.572Z,27.1
2022-08-09T09:53:12.408Z,27.2
2022-08-09T09:54:20.279Z,27.3
2022-08-09T09:55:24.252Z,27.4
2022-08-09T09:56:30.933Z,27.4
2022-08-09T09:58:03.317Z,27.6
2022-08-09T09:58:19.103Z,27.7
2022-08-09T09:59:12.479Z,27.6
2022-08-09T10:00:12.451Z,27.8
2022-08-09T10:01:31.332Z,27.9
2022-08-09T10:02:12.414Z,28.1
2022-08-09T10:03:13.886Z,28
2022-08-09T10:04:12.519Z,28.2
2022-08-09T10:05:12.420Z,28.2
2022-08-09T10:06:12.612Z,28.4
2022-08-09T10:07:15.280Z,28.5
2022-08-09T10:08:28.438Z,28.7
2022-08-09T10:09:22.556Z,28.7
2022-08-09T10:10:12.430Z,28.8
2022-08-09T10:11:53.867Z,28.7
2022-08-09T10:12:28.166Z,28.9
2022-08-09T10:13:12.459Z,28.9
2022-08-09T10:14:12.421Z,28.8
2022-08-09T10:15:25.355Z,28.9
2022-08-09T10:16:56.541Z,28.9
2022-08-09T10:17:40.147Z,29
2022-08-09T10:18:12.439Z,29.1
2022-08-09T10:19:12.427Z,29.2
2022-08-09T10:20:15.307Z,29.2
2022-08-09T10:21:12.427Z,29.2
2022-08-09T10:22:12.435Z,29.2
2022-08-09T10:24:16.093Z,29.7
2022-08-09T10:25:14.177Z,29.8
2022-08-09T10:26:12.432Z,30.1
2022-08-09T10:27:17.290Z,30.1
2022-08-09T10:28:14.017Z,30.1
2022-08-09T10:29:37.219Z,30
2022-08-09T10:31:40.172Z,30.1
2022-08-09T10:32:38.158Z,30.1
2022-08-09T10:34:04.432Z,29.9
2022-08-09T10:34:32.526Z,29.9
2022-08-09T10:35:13.270Z,29.8
2022-08-09T10:36:12.444Z,29.9
2022-08-09T10:37:13.807Z,29.9
2022-08-09T10:38:33.844Z,30.1
2022-08-09T10:40:33.492Z,30.5
2022-08-09T10:41:12.446Z,30.6
2022-08-09T10:42:12.445Z,30.7
2022-08-09T10:43:13.038Z,30.6
2022-08-09T10:44:12.571Z,30.6
2022-08-09T10:45:16.873Z,30.4
2022-08-09T10:46:18.260Z,30.5
2022-08-09T10:47:20.594Z,30.5
2022-08-09T10:48:25.994Z,30.5
2022-08-09T10:49:12.455Z,30.3
2022-08-09T10:50:14.780Z,30.3
2022-08-09T10:52:13.617Z,30.2
2022-08-09T10:53:12.513Z,30.4
2022-08-09T10:54:13.180Z,30.4
2022-08-09T10:55:12.457Z,30.5
2022-08-09T10:56:12.456Z,30.3
2022-08-09T10:57:12.454Z,30.1
2022-08-09T10:58:17.125Z,30.2
2022-08-09T10:59:12.469Z,30.1
2022-08-09T11:03:11.583Z,30.2
2022-08-09T11:03:15.055Z,30.3
2022-08-09T11:03:49.593Z,30.3
2022-08-09T11:04:29.773Z,30
2022-08-09T11:05:12.540Z,30.2
2022-08-09T11:06:12.465Z,30.2
2022-08-09T11:07:12.526Z,30.1
2022-08-09T11:08:12.493Z,30.1
2022-08-09T11:09:16.097Z,30.1
2022-08-09T11:10:12.470Z,30.2
2022-08-09T11:11:12.466Z,30.3
2022-08-09T11:12:12.462Z,30
2022-08-09T11:13:12.468Z,29.8
2022-08-09T11:14:12.502Z,29.9
2022-08-09T11:15:16.742Z,29.6
2022-08-09T11:16:12.472Z,29.8
2022-08-09T11:17:12.470Z,30
2022-08-09T11:18:12.471Z,29.8
2022-08-09T11:19:12.473Z,29.8
2022-08-09T11:20:20.338Z,30
2022-08-09T11:21:12.505Z,29.8
2022-08-09T11:22:21.553Z,29.9
2022-08-09T11:23:12.480Z,30.2
2022-08-09T11:24:12.488Z,30.2
2022-08-09T11:25:12.475Z,30.1
2022-08-09T11:26:12.497Z,30.2
2022-08-09T11:28:14.519Z,30.5
2022-08-09T11:29:12.488Z,30.6
2022-08-09T11:30:32.402Z,30.7
2022-08-09T11:31:12.509Z,30.8
2022-08-09T11:32:12.485Z,30.9
2022-08-09T11:33:12.481Z,31
2022-08-09T11:34:12.480Z,30.9
2022-08-09T11:35:12.500Z,30.8
2022-08-09T11:36:14.748Z,30.7
2022-08-09T11:37:18.187Z,30.6
2022-08-09T11:38:12.486Z,30.8
2022-08-09T11:39:13.037Z,30.9
2022-08-09T11:40:12.488Z,31.1
2022-08-09T11:41:13.065Z,31
2022-08-09T11:42:14.898Z,31
2022-08-09T11:43:12.489Z,31.1
2022-08-09T11:44:12.490Z,31.2
2022-08-09T11:45:12.497Z,31.2
2022-08-09T11:46:12.505Z,31.3
2022-08-09T11:47:14.572Z,31.4
2022-08-09T11:48:25.355Z,31.4
2022-08-09T11:49:16.886Z,31.5
2022-08-09T11:50:54.378Z,31.6
2022-08-09T11:52:37.370Z,31.6
2022-08-09T11:53:03.321Z,31.7
2022-08-09T11:54:13.894Z,31.7
2022-08-09T11:55:12.498Z,31.6
2022-08-09T11:56:12.529Z,31.6
2022-08-09T11:57:12.510Z,31.7
2022-08-09T11:58:12.507Z,31.7
2022-08-09T11:59:12.503Z,31.7
2022-08-09T12:00:16.248Z,31.8
2022-08-09T12:01:15.452Z,31.9
2022-08-09T12:02:17.230Z,32
2022-08-09T12:03:50.442Z,32.1
2022-08-09T12:04:20.800Z,32.1
2022-08-09T12:05:17.830Z,32.2
2022-08-09T12:06:12.512Z,32.2
2022-08-09T12:07:14.187Z,32.3
2022-08-09T12:08:21.834Z,32.1
2022-08-09T12:09:19.695Z,32.3
2022-08-09T12:10:32.040Z,32
2022-08-09T12:11:12.859Z,31.9
2022-08-09T12:12:19.954Z,31.6
2022-08-09T12:14:09.053Z,31.5
2022-08-09T12:15:12.522Z,31.4
2022-08-09T12:16:30.779Z,31.4
2022-08-09T12:17:27.989Z,31.5
2022-08-09T12:18:12.524Z,31.6
2022-08-09T12:20:12.528Z,31.7
2022-08-09T12:21:28.540Z,31.6
2022-08-09T12:22:12.530Z,31.7
2022-08-09T12:23:12.532Z,31.7
2022-08-09T12:24:12.549Z,31.4
2022-08-09T12:25:12.525Z,31.4
2022-08-09T12:26:12.523Z,31.4
2022-08-09T12:29:00.307Z,31.6
2022-08-09T12:29:14.068Z,31.4
2022-08-09T12:29:43.669Z,31.7
2022-08-09T12:30:36.652Z,31.5
2022-08-09T12:31:30.687Z,31.7
2022-08-09T12:32:12.528Z,31.9
2022-08-09T12:33:12.538Z,32
2022-08-09T12:34:12.543Z,32.1
2022-08-09T12:36:27.564Z,32
2022-08-09T12:37:23.912Z,31.8
2022-08-09T12:38:12.579Z,31.8
2022-08-09T12:39:12.605Z,31.8
2022-08-09T12:40:12.544Z,31.9
2022-08-09T12:41:12.533Z,32
2022-08-09T12:42:16.275Z,32
2022-08-09T12:43:12.540Z,32.1
2022-08-09T12:44:12.961Z,32.2
2022-08-09T12:45:33.952Z,32.3
2022-08-09T12:46:12.550Z,32.5
2022-08-09T12:47:12.554Z,32.6
2022-08-09T12:48:30.991Z,32.6
2022-08-09T12:49:12.544Z,32.6
2022-08-09T12:50:12.552Z,32.5
2022-08-09T12:51:12.544Z,32.5
2022-08-09T12:52:12.557Z,32.6
2022-08-09T12:53:19.464Z,32.6
2022-08-09T12:54:12.550Z,32.8
2022-08-09T12:57:12.556Z,32.9
2022-08-09T12:58:24.265Z,32.7
2022-08-09T12:59:14.063Z,32.5
2022-08-09T13:00:12.546Z,32.4
2022-08-09T13:01:12.633Z,32.3
2022-08-09T13:02:12.554Z,32.3
2022-08-09T13:03:24.531Z,32.3
2022-08-09T13:04:35.926Z,32.2
2022-08-09T13:05:12.557Z,32
2022-08-09T13:06:16.023Z,32.2
2022-08-09T13:07:13.345Z,32.2
2022-08-09T13:08:12.563Z,32.2
2022-08-09T13:09:12.775Z,31.8
2022-08-09T13:10:12.561Z,31.9
2022-08-09T13:11:22.606Z,31.9
2022-08-09T13:12:12.560Z,31.9
2022-08-09T13:13:12.575Z,32
2022-08-09T13:14:41.541Z,32.1
2022-08-09T13:15:12.572Z,32.1
2022-08-09T13:16:12.571Z,32.1
2022-08-09T13:17:12.565Z,32.1
2022-08-09T13:18:17.513Z,32.2
2022-08-09T13:19:12.578Z,32.4
2022-08-09T13:20:17.463Z,32.6
2022-08-09T13:22:36.524Z,32.8
2022-08-09T13:22:38.386Z,32.7
2022-08-09T13:24:07.409Z,32.7
2022-08-09T13:24:44.380Z,32.6
2022-08-09T13:25:14.195Z,32.4
2022-08-09T13:26:12.574Z,32.5
2022-08-09T13:27:12.600Z,32.5
2022-08-09T13:28:14.129Z,32.4
2022-08-09T13:29:13.126Z,32.5
2022-08-09T13:30:50.763Z,32.3
2022-08-09T13:32:19.901Z,32
2022-08-09T13:32:20.425Z,32.1
2022-08-09T13:33:17.001Z,32.2
2022-08-09T13:34:12.590Z,32.2
2022-08-09T13:35:12.591Z,32.1
2022-08-09T13:36:38.601Z,32.1
2022-08-09T13:37:12.597Z,32.1
2022-08-09T13:38:17.632Z,32.2
2022-08-09T13:41:46.173Z,32
2022-08-09T13:41:46.175Z,32.2
2022-08-09T13:41:50.736Z,32.3
2022-08-09T13:42:12.972Z,32.2
2022-08-09T13:43:16.066Z,32
2022-08-09T13:44:16.428Z,32.1
2022-08-09T13:45:12.585Z,32.2
2022-08-09T13:47:16.881Z,32.2
2022-08-09T13:47:26.917Z,32.3
2022-08-09T13:48:14.713Z,32.1
2022-08-09T13:50:30.055Z,31.7
2022-08-09T13:51:12.600Z,31.8
2022-08-09T13:52:12.598Z,31.9
2022-08-09T13:53:12.595Z,31.9
2022-08-09T13:54:13.566Z,32
2022-08-09T13:55:13.499Z,32.1
2022-08-09T13:56:12.597Z,32.2
2022-08-09T13:57:14.381Z,32.1
2022-08-09T13:58:12.601Z,32
2022-08-09T13:59:12.604Z,32
2022-08-09T14:00:12.842Z,32.2
2022-08-09T14:01:13.519Z,32.3